createdAt,value
2022-10-05T00:02:15.322Z,77.06
2022-10-05T00:04:41.821Z,77.51
2022-10-05T00:07:14.277Z,77.66
2022-10-05T00:09:41.132Z,77.70
2022-10-05T00:12:17.503Z,77.16
2022-10-05T00:14:46.271Z,77.28
2022-10-05T00:17:28.253Z,77.78
2022-10-05T00:19:55.445Z,77.00
2022-10-05T00:22:30.284Z,77.10
2022-10-05T00:25:00.534Z,77.02
2022-10-05T00:27:33.071Z,77.64
2022-10-05T00:30:02.696Z,71.49
2022-10-05T00:32:29.007Z,74.94
2022-10-05T00:34:57.153Z,83.95
2022-10-05T00:37:23.584Z,82.84
2022-10-05T00:39:50.018Z,79.97
2022-10-05T00:42:36.268Z,69.52
2022-10-05T00:45:13.174Z,75.95
2022-10-05T00:48:20.497Z,81.06
2022-10-05T00:50:59.113Z,78.91
2022-10-05T00:53:54.744Z,77.44
2022-10-05T00:56:31.754Z,77.69
2022-10-05T00:59:21.995Z,77.01
2022-10-05T01:02:12.325Z,77.65
2022-10-05T01:05:07.203Z,77.22
2022-10-05T01:08:14.112Z,77.21
2022-10-05T01:10:51.132Z,76.92
2022-10-05T01:13:41.518Z,69.93
2022-10-05T01:16:20.007Z,79.21
2022-10-05T01:18:56.114Z,77.53
2022-10-05T01:21:25.931Z,72.79
2022-10-05T01:24:17.686Z,79.25
2022-10-05T01:27:02.671Z,70.74
2022-10-05T01:29:31.978Z,79.94
2022-10-05T01:32:23.820Z,82.31
2022-10-05T01:35:16.251Z,73.46
2022-10-05T01:37:59.947Z,78.06
2022-10-05T01:40:53.989Z,77.58
2022-10-05T01:43:26.345Z,77.78
2022-10-05T01:46:22.174Z,77.24
2022-10-05T01:48:54.521Z,73.93
2022-10-05T01:51:58.586Z,70.64
2022-10-05T01:54:42.832Z,80.12
2022-10-05T01:57:22.243Z,80.36
2022-10-05T02:00:09.147Z,77.65
2022-10-05T02:02:50.551Z,77.62
2022-10-05T02:05:24.837Z,78.92
2022-10-05T02:08:03.439Z,77.63
2022-10-05T02:10:48.123Z,78.56
2022-10-05T02:13:22.289Z,78.26
2022-10-05T02:15:54.338Z,77.00
2022-10-05T02:18:36.599Z,77.16
2022-10-05T02:21:04.536Z,74.85
2022-10-05T02:23:38.502Z,77.57
2022-10-05T02:26:06.948Z,77.60
2022-10-05T02:28:54.565Z,77.07
2022-10-05T02:31:35.108Z,76.73
2022-10-05T02:34:20.472Z,77.30
2022-10-05T02:36:54.648Z,70.76
2022-10-05T02:39:35.073Z,81.38
2022-10-05T02:42:04.250Z,77.99
2022-10-05T02:45:00.003Z,77.73
2022-10-05T02:47:50.182Z,77.87
2022-10-05T02:50:31.819Z,76.13
2022-10-05T02:53:26.409Z,77.79
2022-10-05T02:56:08.472Z,77.17
2022-10-05T02:59:09.036Z,77.78
2022-10-05T03:02:12.214Z,77.37
2022-10-05T03:04:52.090Z,76.79
2022-10-05T03:07:29.597Z,66.58
2022-10-05T03:10:17.887Z,78.10
2022-10-05T03:13:09.859Z,81.55
2022-10-05T03:15:52.638Z,77.94
2022-10-05T03:18:54.099Z,77.63
2022-10-05T03:21:53.273Z,67.60
2022-10-05T03:24:35.436Z,82.09
2022-10-05T03:27:36.274Z,69.96
2022-10-05T03:30:09.756Z,81.68
2022-10-05T03:33:00.622Z,78.52
2022-10-05T03:35:35.453Z,77.87
2022-10-05T03:38:29.344Z,77.81
2022-10-05T03:41:16.835Z,76.83
2022-10-05T03:44:01.675Z,77.34
2022-10-05T03:46:51.508Z,77.69
2022-10-05T03:49:31.755Z,66.71
2022-10-05T03:52:34.175Z,81.34
2022-10-05T03:55:19.923Z,66.46
2022-10-05T03:57:49.376Z,79.00
2022-10-05T04:00:23.235Z,77.74
2022-10-05T04:03:21.287Z,77.15
2022-10-05T04:05:52.227Z,77.20
2022-10-05T04:08:37.725Z,76.40
2022-10-05T04:11:14.198Z,77.69
2022-10-05T04:13:50.675Z,77.04
2022-10-05T04:16:17.155Z,77.46
2022-10-05T04:19:20.149Z,77.39
2022-10-05T04:21:56.247Z,80.38
2022-10-05T04:24:34.951Z,77.88
2022-10-05T04:27:19.555Z,77.23
2022-10-05T04:30:14.422Z,77.53
2022-10-05T04:32:57.745Z,76.58
2022-10-05T04:35:40.860Z,77.52
2022-10-05T04:38:19.678Z,77.09
2022-10-05T04:40:57.900Z,76.50
2022-10-05T04:43:49.169Z,68.86
2022-10-05T04:46:37.612Z,77.97
2022-10-05T04:49:39.344Z,66.91
2022-10-05T04:52:29.522Z,79.81
2022-10-05T04:55:19.997Z,77.46
2022-10-05T04:58:36.778Z,77.08
2022-10-05T05:01:32.441Z,68.92
2022-10-05T05:04:22.041Z,80.54
2022-10-05T05:06:57.893Z,78.45
2022-10-05T05:09:45.581Z,77.03
2022-10-05T05:12:17.954Z,75.42
2022-10-05T05:14:55.451Z,76.97
2022-10-05T05:17:54.720Z,77.12
2022-10-05T05:20:39.573Z,76.66
2022-10-05T05:23:16.951Z,76.91
2022-10-05T05:25:56.747Z,76.66
2022-10-05T05:29:05.536Z,76.48
2022-10-05T05:31:40.712Z,77.42
2022-10-05T05:34:32.382Z,76.82
2022-10-05T05:37:19.975Z,73.94
2022-10-05T05:40:03.099Z,77.35
2022-10-05T05:42:58.231Z,74.35
2022-10-05T05:45:46.959Z,80.37
2022-10-05T05:48:29.176Z,78.82
2022-10-05T05:51:01.534Z,76.80
2022-10-05T05:53:50.600Z,77.63
2022-10-05T05:56:34.131Z,77.07
2022-10-05T05:59:14.206Z,67.25
2022-10-05T06:01:52.410Z,77.12
2022-10-05T06:04:25.136Z,78.67
2022-10-05T06:06:54.391Z,69.02
2022-10-05T06:09:36.580Z,72.46
2022-10-05T06:12:22.698Z,80.62
2022-10-05T06:14:58.338Z,80.78
2022-10-05T06:17:35.747Z,71.80
2022-10-05T06:20:06.011Z,77.97
2022-10-05T06:22:46.275Z,80.68
2022-10-05T06:25:12.653Z,82.73
2022-10-05T06:28:01.652Z,79.45
2022-10-05T06:30:44.845Z,81.25
2022-10-05T06:33:43.686Z,82.50
2022-10-05T06:36:32.415Z,81.34
2022-10-05T06:39:26.914Z,78.46
2022-10-05T06:42:04.063Z,78.09
2022-10-05T06:44:43.212Z,80.80
2022-10-05T06:47:23.167Z,82.63
2022-10-05T06:50:25.160Z,80.47
2022-10-05T06:53:05.179Z,77.49
2022-10-05T06:55:48.413Z,78.10
2022-10-05T06:58:42.768Z,78.95
2022-10-05T07:01:31.230Z,77.57
2022-10-05T07:04:16.362Z,76.79
2022-10-05T07:07:00.103Z,76.47
2022-10-05T07:09:48.755Z,77.93
2022-10-05T07:12:24.023Z,75.52
2022-10-05T07:15:18.680Z,77.48
2022-10-05T07:17:57.665Z,78.06
2022-10-05T07:20:39.786Z,80.34
2022-10-05T07:23:31.848Z,78.24
2022-10-05T07:26:07.827Z,76.46
2022-10-05T07:28:46.154Z,84.06
2022-10-05T07:31:32.611Z,75.87
2022-10-05T07:34:06.673Z,75.30
2022-10-05T07:37:06.994Z,72.92
2022-10-05T07:40:01.203Z,78.98
2022-10-05T07:42:47.572Z,70.46
2022-10-05T07:45:37.924Z,70.38
2022-10-05T07:48:15.696Z,71.13
2022-10-05T07:51:21.731Z,68.80
2022-10-05T07:54:10.077Z,66.34
2022-10-05T07:56:43.432Z,63.14
2022-10-05T07:59:19.203Z,70.30
2022-10-05T08:01:52.090Z,71.90
2022-10-05T08:04:28.145Z,75.37
2022-10-05T08:06:58.095Z,81.21
2022-10-05T08:09:36.335Z,76.46
2022-10-05T08:12:20.840Z,76.98
2022-10-05T08:14:58.081Z,76.23
2022-10-05T08:17:51.005Z,74.27
2022-10-05T08:20:46.480Z,84.55
2022-10-05T08:23:36.474Z,63.93
2022-10-05T08:26:08.281Z,69.83
2022-10-05T08:28:39.689Z,83.32
2022-10-05T08:31:09.122Z,82.64
2022-10-05T08:34:07.591Z,70.12
2022-10-05T08:36:40.018Z,69.01
2022-10-05T08:39:18.354Z,57.37
2022-10-05T08:41:59.459Z,56.17
2022-10-05T08:44:44.580Z,60.88
2022-10-05T08:47:37.221Z,55.16
2022-10-05T08:50:21.712Z,52.75
2022-10-05T08:53:25.624Z,56.20
2022-10-05T08:56:10.434Z,50.48
2022-10-05T08:59:02.784Z,49.46
2022-10-05T09:01:54.320Z,49.45
2022-10-05T09:04:58.259Z,56.55
2022-10-05T09:07:47.101Z,53.51
2022-10-05T09:10:25.307Z,50.37
2022-10-05T09:13:13.671Z,51.78
2022-10-05T09:16:16.867Z,47.97
2022-10-05T09:19:01.927Z,49.85
2022-10-05T09:22:15.595Z,47.82
2022-10-05T09:24:57.378Z,47.27
2022-10-05T09:27:38.260Z,47.11
2022-10-05T09:30:16.459Z,46.51
2022-10-05T09:32:58.034Z,48.26
2022-10-05T09:35:46.221Z,46.53
2022-10-05T09:38:38.311Z,47.24
2022-10-05T09:41:29.512Z,48.21
2022-10-05T09:44:45.596Z,46.15
2022-10-05T09:47:39.349Z,50.64
2022-10-05T09:50:05.743Z,47.36
2022-10-05T09:52:51.254Z,47.92
2022-10-05T09:55:34.868Z,52.26
2022-10-05T09:58:34.558Z,50.17
2022-10-05T10:01:09.803Z,48.47
2022-10-05T10:04:10.128Z,49.19
2022-10-05T10:06:46.507Z,49.26
2022-10-05T10:09:38.519Z,50.48
2022-10-05T10:12:22.963Z,48.34
2022-10-05T10:15:20.053Z,53.03
2022-10-05T10:18:07.604Z,51.22
2022-10-05T10:20:58.784Z,53.14
2022-10-05T10:23:55.096Z,51.93
2022-10-05T10:26:56.156Z,54.00
2022-10-05T10:29:45.859Z,54.91
2022-10-05T10:32:34.088Z,56.19
2022-10-05T10:35:22.331Z,55.36
2022-10-05T10:38:28.487Z,53.42
2022-10-05T10:41:06.631Z,57.34
2022-10-05T10:44:17.242Z,56.95
2022-10-05T10:46:59.132Z,55.46
2022-10-05T10:49:34.489Z,52.22
2022-10-05T10:52:08.317Z,52.14
2022-10-05T10:54:55.777Z,51.50
2022-10-05T10:57:36.720Z,54.08
2022-10-05T11:00:27.125Z,55.14
2022-10-05T11:03:26.439Z,56.70
2022-10-05T11:06:05.172Z,55.32
2022-10-05T11:08:46.509Z,58.14
2022-10-05T11:11:51.791Z,52.50
2022-10-05T11:14:55.315Z,59.66
2022-10-05T11:17:26.128Z,62.45
2022-10-05T11:20:21.536Z,59.31
2022-10-05T11:23:00.215Z,55.99
2022-10-05T11:25:46.614Z,69.47
2022-10-05T11:28:38.112Z,60.81
2022-10-05T11:31:37.914Z,54.51
2022-10-05T11:34:21.134Z,48.37
2022-10-05T11:37:25.201Z,49.32
2022-10-05T11:40:10.514Z,48.99
2022-10-05T11:43:06.375Z,46.15
2022-10-05T11:45:45.782Z,44.00
2022-10-05T11:48:39.431Z,45.90
2022-10-05T11:51:30.441Z,50.64
2022-10-05T11:54:09.081Z,42.90
2022-10-05T11:57:04.636Z,42.49
2022-10-05T11:59:43.224Z,49.44
2022-10-05T12:02:28.048Z,42.89
2022-10-05T12:05:12.837Z,52.76
2022-10-05T12:08:00.200Z,51.77
2022-10-05T12:10:52.872Z,53.72
2022-10-05T12:13:38.007Z,49.16
2022-10-05T12:16:20.720Z,64.92
2022-10-05T12:19:29.619Z,64.32
2022-10-05T12:22:04.146Z,67.87
2022-10-05T12:24:36.446Z,59.31
2022-10-05T12:27:09.616Z,68.15
2022-10-05T12:29:50.925Z,69.69
2022-10-05T12:32:49.370Z,50.07
2022-10-05T12:35:29.974Z,53.95
2022-10-05T12:38:17.601Z,61.70
2022-10-05T12:41:10.926Z,54.03
2022-10-05T12:44:02.458Z,64.49
2022-10-05T12:46:46.743Z,67.85
2022-10-05T12:49:25.159Z,50.82
2022-10-05T12:51:58.341Z,59.48
2022-10-05T12:54:39.903Z,66.92
2022-10-05T12:57:34.375Z,69.83
2022-10-05T13:00:12.649Z,56.01
2022-10-05T13:02:44.879Z,56.25
2022-10-05T13:05:11.218Z,61.93
2022-10-05T13:07:58.817Z,67.81
2022-10-05T13:10:36.343Z,71.20
2022-10-05T13:13:21.421Z,71.39
2022-10-05T13:16:22.701Z,67.80
2022-10-05T13:19:14.503Z,56.67
2022-10-05T13:21:49.925Z,52.68
2022-10-05T13:24:24.777Z,65.68
2022-10-05T13:26:59.199Z,67.50
2022-10-05T13:29:37.463Z,68.78
2022-10-05T13:32:13.404Z,67.13
2022-10-05T13:34:52.546Z,55.98
2022-10-05T13:37:40.982Z,55.03
2022-10-05T13:40:24.968Z,56.97
2022-10-05T13:43:11.783Z,62.59
2022-10-05T13:45:57.012Z,68.24
2022-10-05T13:48:51.737Z,70.69
2022-10-05T13:51:29.445Z,72.01
2022-10-05T13:54:04.892Z,72.96
2022-10-05T13:56:39.484Z,72.65
2022-10-05T13:59:38.389Z,73.11
2022-10-05T14:02:10.723Z,72.95
2022-10-05T14:04:51.988Z,73.08
2022-10-05T14:07:36.367Z,73.64
2022-10-05T14:10:10.336Z,73.72
2022-10-05T14:12:40.311Z,74.24
2022-10-05T14:15:21.358Z,74.68
2022-10-05T14:17:47.987Z,74.07
2022-10-05T14:20:19.709Z,74.07
2022-10-05T14:22:51.543Z,74.54
2022-10-05T14:25:19.784Z,74.34
2022-10-05T14:27:56.018Z,74.39
2022-10-05T14:30:25.647Z,74.92
2022-10-05T14:33:18.296Z,72.71
2022-10-05T14:35:49.198Z,72.95
2022-10-05T14:38:20.075Z,74.25
2022-10-05T14:41:03.393Z,75.61
2022-10-05T14:43:30.266Z,75.60
2022-10-05T14:45:59.427Z,75.92
2022-10-05T14:48:28.071Z,75.75
2022-10-05T14:50:57.811Z,75.58
2022-10-05T14:53:36.225Z,75.78
2022-10-05T14:56:27.131Z,75.44
2022-10-05T14:59:16.187Z,75.36
2022-10-05T15:01:55.486Z,74.84
2022-10-05T15:04:47.622Z,74.84
2022-10-05T15:07:27.996Z,74.66
2022-10-05T15:10:03.387Z,74.52
2022-10-05T15:12:43.692Z,74.52
2022-10-05T15:15:39.660Z,73.85
2022-10-05T15:18:19.618Z,73.58
2022-10-05T15:21:11.092Z,74.06
2022-10-05T15:23:47.412Z,73.70
2022-10-05T15:26:33.154Z,73.65
2022-10-05T15:29:14.837Z,73.62
2022-10-05T15:31:59.024Z,73.83
2022-10-05T15:34:49.000Z,73.90
2022-10-05T15:37:25.166Z,73.59
2022-10-05T15:40:06.784Z,73.85
2022-10-05T15:42:39.038Z,73.53
2022-10-05T15:45:19.535Z,73.81
2022-10-05T15:47:49.805Z,73.98
2022-10-05T15:50:32.420Z,74.68
2022-10-05T15:53:13.492Z,74.42
2022-10-05T15:55:50.757Z,74.48
2022-10-05T15:58:31.269Z,74.63
2022-10-05T16:01:05.397Z,74.64
2022-10-05T16:03:37.730Z,75.21
2022-10-05T16:06:33.383Z,75.53
2022-10-05T16:09:14.853Z,72.94
2022-10-05T16:12:02.340Z,75.40
2022-10-05T16:14:46.959Z,75.70
2022-10-05T16:17:33.910Z,75.85
2022-10-05T16:20:18.919Z,75.45
2022-10-05T16:23:10.259Z,75.64
2022-10-05T16:26:11.587Z,75.91
2022-10-05T16:28:53.172Z,75.49
2022-10-05T16:31:30.981Z,75.90
2022-10-05T16:34:23.624Z,75.45
2022-10-05T16:36:59.102Z,75.57
2022-10-05T16:39:50.223Z,75.26
2022-10-05T16:42:28.782Z,75.33
2022-10-05T16:45:17.213Z,75.23
2022-10-05T16:47:52.728Z,74.85
2022-10-05T16:50:30.154Z,74.68
2022-10-05T16:53:21.357Z,74.69
2022-10-05T16:55:52.969Z,74.69
2022-10-05T16:58:27.302Z,74.91
2022-10-05T17:00:56.473Z,74.66
2022-10-05T17:03:39.930Z,74.76
2022-10-05T17:06:20.489Z,74.85
2022-10-05T17:09:19.234Z,74.53
2022-10-05T17:12:29.393Z,75.11
2022-10-05T17:15:29.237Z,74.88
2022-10-05T17:18:24.028Z,74.67
2022-10-05T17:21:01.007Z,74.74
2022-10-05T17:23:32.197Z,74.97
2022-10-05T17:26:13.827Z,75.04
2022-10-05T17:29:11.730Z,74.99
2022-10-05T17:32:06.118Z,74.93
2022-10-05T17:34:36.325Z,74.91
2022-10-05T17:37:27.618Z,74.81
2022-10-05T17:39:56.214Z,74.89
2022-10-05T17:42:42.572Z,74.91
2022-10-05T17:45:14.715Z,74.78
2022-10-05T17:47:57.975Z,74.92
2022-10-05T17:51:06.103Z,74.62
2022-10-05T17:54:03.201Z,74.81
2022-10-05T17:56:33.723Z,74.88
2022-10-05T17:59:04.147Z,74.93
2022-10-05T18:01:33.871Z,74.76
2022-10-05T18:04:12.685Z,72.25
2022-10-05T18:06:59.003Z,73.50
2022-10-05T18:09:26.981Z,80.76
2022-10-05T18:12:17.851Z,77.38
2022-10-05T18:15:12.859Z,74.84
2022-10-05T18:17:45.203Z,74.85
2022-10-05T18:20:23.811Z,74.94
2022-10-05T18:22:53.027Z,74.75
2022-10-05T18:25:29.480Z,74.86
2022-10-05T18:28:00.668Z,74.61
2022-10-05T18:30:37.030Z,74.99
2022-10-05T18:33:32.022Z,67.54
2022-10-05T18:36:20.859Z,75.21
2022-10-05T18:38:55.114Z,70.88
2022-10-05T18:41:51.314Z,73.96
2022-10-05T18:44:30.441Z,75.32
2022-10-05T18:47:09.633Z,74.74
2022-10-05T18:49:51.787Z,74.98
2022-10-05T18:52:49.442Z,74.65
2022-10-05T18:55:45.782Z,75.42
2022-10-05T18:58:57.489Z,74.47
2022-10-05T19:01:57.097Z,75.79
2022-10-05T19:04:39.981Z,70.43
2022-10-05T19:07:31.698Z,81.72
2022-10-05T19:10:17.320Z,76.49
2022-10-05T19:12:52.608Z,75.10
2022-10-05T19:15:54.101Z,75.08
2022-10-05T19:18:55.631Z,74.38
2022-10-05T19:21:22.081Z,74.43
2022-10-05T19:23:48.604Z,69.61
2022-10-05T19:26:36.365Z,75.79
2022-10-05T19:29:57.300Z,69.63
2022-10-05T19:32:48.653Z,77.42
2022-10-05T19:35:43.176Z,68.82
2022-10-05T19:38:25.115Z,75.18
2022-10-05T19:41:09.788Z,68.50
2022-10-05T19:43:55.965Z,70.14
2022-10-05T19:46:31.706Z,79.48
2022-10-05T19:49:00.122Z,69.26
2022-10-05T19:51:30.702Z,76.13
2022-10-05T19:54:06.478Z,75.24
2022-10-05T19:56:34.387Z,74.53
2022-10-05T19:59:13.221Z,74.86
2022-10-05T20:01:40.683Z,66.38
2022-10-05T20:04:08.042Z,74.91
2022-10-05T20:06:34.711Z,74.42
2022-10-05T20:09:19.272Z,74.59
2022-10-05T20:11:53.435Z,74.63
2022-10-05T20:14:31.724Z,77.32
2022-10-05T20:17:52.168Z,74.56
2022-10-05T20:20:48.465Z,74.71
2022-10-05T20:23:24.516Z,74.46
2022-10-05T20:26:10.865Z,74.26
2022-10-05T20:28:37.791Z,74.05
2022-10-05T20:31:08.969Z,74.10
2022-10-05T20:33:35.607Z,74.28
2022-10-05T20:36:03.652Z,74.01
2022-10-05T20:38:31.270Z,74.58
2022-10-05T20:40:58.041Z,74.31
2022-10-05T20:43:24.497Z,74.36
2022-10-05T20:45:53.741Z,74.22
2022-10-05T20:48:20.233Z,74.18
2022-10-05T20:50:47.394Z,66.97
2022-10-05T20:53:13.844Z,76.08
2022-10-05T20:55:40.514Z,74.22
2022-10-05T20:58:08.936Z,66.84
2022-10-05T21:00:54.239Z,75.42
2022-10-05T21:03:20.797Z,70.22
2022-10-05T21:05:47.314Z,79.67
2022-10-05T21:08:14.017Z,74.19
2022-10-05T21:10:40.633Z,77.28
2022-10-05T21:13:07.133Z,75.16
2022-10-05T21:15:33.567Z,74.27
2022-10-05T21:17:59.976Z,74.14
2022-10-05T21:20:26.517Z,74.48
2022-10-05T21:22:52.902Z,78.02
2022-10-05T21:25:19.355Z,74.78
2022-10-05T21:27:46.370Z,75.05
2022-10-05T21:30:12.996Z,75.93
2022-10-05T21:32:43.980Z,75.19
2022-10-05T21:35:11.008Z,74.26
2022-10-05T21:37:37.601Z,74.36
2022-10-05T21:40:04.636Z,74.62
2022-10-05T21:42:31.304Z,70.25
2022-10-05T21:44:57.736Z,76.62
2022-10-05T21:47:24.236Z,74.71
2022-10-05T21:49:50.661Z,76.52
2022-10-05T21:52:17.567Z,72.30
2022-10-05T21:54:44.153Z,74.89
2022-10-05T21:57:12.290Z,72.33
2022-10-05T21:59:40.133Z,74.87
2022-10-05T22:02:06.630Z,76.20
2022-10-05T22:04:33.093Z,74.79
2022-10-05T22:06:59.663Z,74.59
2022-10-05T22:09:26.204Z,74.63
2022-10-05T22:11:52.720Z,67.96
2022-10-05T22:14:19.238Z,73.00
2022-10-05T22:16:45.763Z,76.49
2022-10-05T22:19:18.702Z,77.70
2022-10-05T22:21:45.127Z,75.22
2022-10-05T22:24:11.697Z,75.39
2022-10-05T22:26:39.770Z,75.08
2022-10-05T22:29:06.364Z,74.68
2022-10-05T22:31:32.945Z,74.42
2022-10-05T22:33:59.481Z,65.56
2022-10-05T22:36:26.580Z,74.87
2022-10-05T22:38:52.985Z,74.33
2022-10-05T22:41:19.435Z,70.65
2022-10-05T22:43:49.944Z,75.34
2022-10-05T22:46:16.839Z,75.38
2022-10-05T22:48:43.416Z,66.21
2022-10-05T22:51:10.334Z,80.44
2022-10-05T22:53:36.978Z,66.56
2022-10-05T22:56:09.134Z,75.56
2022-10-05T22:58:36.931Z,74.97
2022-10-05T23:01:05.921Z,74.71
2022-10-05T23:03:33.052Z,65.89
2022-10-05T23:06:03.505Z,77.53
2022-10-05T23:08:31.639Z,75.04
2022-10-05T23:11:05.424Z,66.91
2022-10-05T23:13:32.613Z,68.33
2022-10-05T23:16:08.938Z,75.81
2022-10-05T23:18:35.679Z,74.50
2022-10-05T23:21:02.512Z,77.32
2022-10-05T23:23:28.982Z,74.96
2022-10-05T23:26:00.430Z,69.12
2022-10-05T23:28:28.182Z,76.17
2022-10-05T23:31:01.982Z,67.76
2022-10-05T23:33:28.859Z,68.29
2022-10-05T23:36:02.167Z,75.86
2022-10-05T23:38:29.918Z,67.73
2022-10-05T23:40:58.863Z,75.57
2022-10-05T23:43:26.808Z,66.30
2022-10-05T23:45:54.807Z,74.56
2022-10-05T23:48:21.543Z,74.83
2022-10-05T23:50:49.614Z,74.18
2022-10-05T23:53:17.315Z,74.15
2022-10-05T23:55:44.123Z,75.51
2022-10-05T23:58:11.456Z,74.27
